sensor_id;sensor_type;location;lat;lon;timestamp;P1;durP1;ratioP1;P2;durP2;ratioP2
7683;SDS011;3884;48.616;12.872;2023-05-18T00:01:19;14.17;;;7.17;;
7683;SDS011;3884;48.616;12.872;2023-05-18T00:03:46;7.23;;;6.53;;
7683;SDS011;3884;48.616;12.872;2023-05-18T00:06:13;7.90;;;6.60;;
7683;SDS011;3884;48.616;12.872;2023-05-18T00:08:43;7.83;;;7.03;;
7683;SDS011;3884;48.616;12.872;2023-05-18T00:11:09;9.23;;;7.30;;
7683;SDS011;3884;48.616;12.872;2023-05-18T00:13:36;12.83;;;7.23;;
7683;SDS011;3884;48.616;12.872;2023-05-18T00:16:03;8.53;;;7.63;;
7683;SDS011;3884;48.616;12.872;2023-05-18T00:18:30;8.00;;;7.00;;
7683;SDS011;3884;48.616;12.872;2023-05-18T00:20:58;8.83;;;7.43;;
7683;SDS011;3884;48.616;12.872;2023-05-18T00:23:25;8.40;;;6.50;;
7683;SDS011;3884;48.616;12.872;2023-05-18T00:25:55;7.37;;;6.63;;
7683;SDS011;3884;48.616;12.872;2023-05-18T00:28:22;8.93;;;6.83;;
7683;SDS011;3884;48.616;12.872;2023-05-18T00:30:49;7.37;;;6.60;;
7683;SDS011;3884;48.616;12.872;2023-05-18T00:33:19;11.83;;;6.83;;
7683;SDS011;3884;48.616;12.872;2023-05-18T00:35:46;7.73;;;6.90;;
7683;SDS011;3884;48.616;12.872;2023-05-18T00:38:13;7.77;;;6.80;;
7683;SDS011;3884;48.616;12.872;2023-05-18T00:40:41;11.93;;;7.37;;
7683;SDS011;3884;48.616;12.872;2023-05-18T00:43:11;13.37;;;10.00;;
7683;SDS011;3884;48.616;12.872;2023-05-18T00:45:38;11.97;;;9.83;;
7683;SDS011;3884;48.616;12.872;2023-05-18T00:48:05;9.27;;;8.20;;
7683;SDS011;3884;48.616;12.872;2023-05-18T00:50:32;8.13;;;7.30;;
7683;SDS011;3884;48.616;12.872;2023-05-18T00:52:59;11.80;;;9.43;;
7683;SDS011;3884;48.616;12.872;2023-05-18T00:55:26;14.00;;;9.20;;
7683;SDS011;3884;48.616;12.872;2023-05-18T00:57:53;14.87;;;10.03;;
7683;SDS011;3884;48.616;12.872;2023-05-18T01:00:23;13.47;;;9.77;;
7683;SDS011;3884;48.616;12.872;2023-05-18T01:02:50;9.03;;;8.03;;
7683;SDS011;3884;48.616;12.872;2023-05-18T01:05:17;8.50;;;7.17;;
7683;SDS011;3884;48.616;12.872;2023-05-18T01:07:46;12.57;;;7.13;;
7683;SDS011;3884;48.616;12.872;2023-05-18T01:10:15;8.43;;;7.53;;
7683;SDS011;3884;48.616;12.872;2023-05-18T01:12:44;9.90;;;7.60;;
7683;SDS011;3884;48.616;12.872;2023-05-18T01:15:17;9.03;;;6.73;;
7683;SDS011;3884;48.616;12.872;2023-05-18T01:18:00;8.57;;;6.70;;
7683;SDS011;3884;48.616;12.872;2023-05-18T01:20:34;7.80;;;5.70;;
7683;SDS011;3884;48.616;12.872;2023-05-18T01:23:26;7.70;;;5.60;;
7683;SDS011;3884;48.616;12.872;2023-05-18T01:26:11;9.33;;;6.10;;
7683;SDS011;3884;48.616;12.872;2023-05-18T01:28:43;7.70;;;5.37;;
7683;SDS011;3884;48.616;12.872;2023-05-18T01:31:12;6.30;;;5.70;;
7683;SDS011;3884;48.616;12.872;2023-05-18T01:33:40;7.20;;;5.47;;
7683;SDS011;3884;48.616;12.872;2023-05-18T01:36:07;6.70;;;5.50;;
7683;SDS011;3884;48.616;12.872;2023-05-18T01:38:35;5.83;;;5.17;;
7683;SDS011;3884;48.616;12.872;2023-05-18T01:41:10;7.53;;;5.40;;
7683;SDS011;3884;48.616;12.872;2023-05-18T01:43:43;7.13;;;6.30;;
7683;SDS011;3884;48.616;12.872;2023-05-18T01:46:17;6.77;;;6.13;;
7683;SDS011;3884;48.616;12.872;2023-05-18T01:48:51;7.70;;;6.03;;
7683;SDS011;3884;48.616;12.872;2023-05-18T01:51:22;7.37;;;6.00;;
7683;SDS011;3884;48.616;12.872;2023-05-18T01:53:56;10.10;;;6.33;;
7683;SDS011;3884;48.616;12.872;2023-05-18T01:56:29;9.00;;;5.30;;
7683;SDS011;3884;48.616;12.872;2023-05-18T01:58:58;5.63;;;5.13;;
7683;SDS011;3884;48.616;12.872;2023-05-18T02:01:26;6.07;;;5.40;;
7683;SDS011;3884;48.616;12.872;2023-05-18T02:03:53;9.30;;;5.53;;
7683;SDS011;3884;48.616;12.872;2023-05-18T02:06:20;7.77;;;5.37;;
7683;SDS011;3884;48.616;12.872;2023-05-18T02:08:47;6.83;;;6.13;;
7683;SDS011;3884;48.616;12.872;2023-05-18T02:11:15;7.17;;;6.33;;
7683;SDS011;3884;48.616;12.872;2023-05-18T02:13:44;7.87;;;7.07;;
7683;SDS011;3884;48.616;12.872;2023-05-18T02:16:11;7.77;;;6.87;;
7683;SDS011;3884;48.616;12.872;2023-05-18T02:18:38;9.90;;;7.07;;
7683;SDS011;3884;48.616;12.872;2023-05-18T02:21:05;8.73;;;7.47;;
7683;SDS011;3884;48.616;12.872;2023-05-18T02:23:34;7.33;;;6.63;;
7683;SDS011;3884;48.616;12.872;2023-05-18T02:26:01;14.27;;;11.93;;
7683;SDS011;3884;48.616;12.872;2023-05-18T02:28:28;14.10;;;10.43;;
7683;SDS011;3884;48.616;12.872;2023-05-18T02:31:04;8.60;;;6.77;;
7683;SDS011;3884;48.616;12.872;2023-05-18T02:33:34;7.73;;;7.00;;
7683;SDS011;3884;48.616;12.872;2023-05-18T02:36:06;7.00;;;6.30;;
7683;SDS011;3884;48.616;12.872;2023-05-18T02:38:34;8.10;;;5.73;;
7683;SDS011;3884;48.616;12.872;2023-05-18T02:41:04;6.37;;;5.77;;
7683;SDS011;3884;48.616;12.872;2023-05-18T02:43:31;6.83;;;6.10;;
7683;SDS011;3884;48.616;12.872;2023-05-18T02:45:59;5.90;;;5.40;;
7683;SDS011;3884;48.616;12.872;2023-05-18T02:48:28;7.03;;;6.37;;
7683;SDS011;3884;48.616;12.872;2023-05-18T02:50:55;9.03;;;6.50;;
7683;SDS011;3884;48.616;12.872;2023-05-18T02:53:23;8.40;;;7.23;;
7683;SDS011;3884;48.616;12.872;2023-05-18T02:55:53;9.73;;;7.83;;
7683;SDS011;3884;48.616;12.872;2023-05-18T02:58:27;9.40;;;7.97;;
7683;SDS011;3884;48.616;12.872;2023-05-18T03:01:04;8.67;;;7.43;;
7683;SDS011;3884;48.616;12.872;2023-05-18T03:03:39;7.83;;;6.90;;
7683;SDS011;3884;48.616;12.872;2023-05-18T03:06:07;8.47;;;7.07;;
7683;SDS011;3884;48.616;12.872;2023-05-18T03:08:35;7.17;;;6.47;;
7683;SDS011;3884;48.616;12.872;2023-05-18T03:11:02;8.20;;;6.23;;
7683;SDS011;3884;48.616;12.872;2023-05-18T03:13:29;6.80;;;6.20;;
7683;SDS011;3884;48.616;12.872;2023-05-18T03:15:57;7.97;;;6.13;;
7683;SDS011;3884;48.616;12.872;2023-05-18T03:18:25;6.90;;;6.20;;
7683;SDS011;3884;48.616;12.872;2023-05-18T03:20:54;7.37;;;6.50;;
7683;SDS011;3884;48.616;12.872;2023-05-18T03:23:26;10.60;;;7.40;;
7683;SDS011;3884;48.616;12.872;2023-05-18T03:25:54;8.40;;;7.60;;
7683;SDS011;3884;48.616;12.872;2023-05-18T03:28:25;7.60;;;6.80;;
7683;SDS011;3884;48.616;12.872;2023-05-18T03:30:52;9.10;;;6.90;;
7683;SDS011;3884;48.616;12.872;2023-05-18T03:33:18;7.60;;;6.57;;
7683;SDS011;3884;48.616;12.872;2023-05-18T03:35:45;7.73;;;6.67;;
7683;SDS011;3884;48.616;12.872;2023-05-18T03:38:15;7.43;;;6.73;;
7683;SDS011;3884;48.616;12.872;2023-05-18T03:40:47;8.63;;;6.80;;
7683;SDS011;3884;48.616;12.872;2023-05-18T03:43:14;8.40;;;7.60;;
7683;SDS011;3884;48.616;12.872;2023-05-18T03:45:43;8.07;;;7.27;;
7683;SDS011;3884;48.616;12.872;2023-05-18T03:48:11;9.13;;;7.53;;
7683;SDS011;3884;48.616;12.872;2023-05-18T03:50:38;9.73;;;7.80;;
7683;SDS011;3884;48.616;12.872;2023-05-18T03:53:05;8.83;;;7.50;;
7683;SDS011;3884;48.616;12.872;2023-05-18T03:55:35;8.70;;;7.80;;
7683;SDS011;3884;48.616;12.872;2023-05-18T03:58:02;8.60;;;7.70;;
7683;SDS011;3884;48.616;12.872;2023-05-18T04:00:30;10.30;;;7.90;;
7683;SDS011;3884;48.616;12.872;2023-05-18T04:02:57;9.90;;;8.70;;
7683;SDS011;3884;48.616;12.872;2023-05-18T04:05:24;9.47;;;7.77;;
7683;SDS011;3884;48.616;12.872;2023-05-18T04:07:52;9.53;;;8.53;;
7683;SDS011;3884;48.616;12.872;2023-05-18T04:10:22;9.10;;;8.20;;
7683;SDS011;3884;48.616;12.872;2023-05-18T04:12:51;8.97;;;8.03;;
7683;SDS011;3884;48.616;12.872;2023-05-18T04:15:18;9.97;;;8.53;;
7683;SDS011;3884;48.616;12.872;2023-05-18T04:17:48;10.97;;;9.27;;
7683;SDS011;3884;48.616;12.872;2023-05-18T04:20:18;11.43;;;8.67;;
7683;SDS011;3884;48.616;12.872;2023-05-18T04:22:45;10.13;;;9.10;;
7683;SDS011;3884;48.616;12.872;2023-05-18T04:25:13;9.50;;;8.57;;
7683;SDS011;3884;48.616;12.872;2023-05-18T04:27:41;10.17;;;9.10;;
7683;SDS011;3884;48.616;12.872;2023-05-18T04:30:12;10.87;;;8.70;;
7683;SDS011;3884;48.616;12.872;2023-05-18T04:32:42;10.27;;;9.03;;
7683;SDS011;3884;48.616;12.872;2023-05-18T04:35:10;12.80;;;9.50;;
7683;SDS011;3884;48.616;12.872;2023-05-18T04:37:38;10.47;;;9.13;;
7683;SDS011;3884;48.616;12.872;2023-05-18T04:40:07;10.63;;;9.27;;
7683;SDS011;3884;48.616;12.872;2023-05-18T04:42:37;10.30;;;9.17;;
7683;SDS011;3884;48.616;12.872;2023-05-18T04:45:11;14.37;;;10.17;;
7683;SDS011;3884;48.616;12.872;2023-05-18T04:47:42;12.30;;;9.10;;
7683;SDS011;3884;48.616;12.872;2023-05-18T04:50:12;12.97;;;9.63;;
7683;SDS011;3884;48.616;12.872;2023-05-18T04:52:40;11.23;;;9.33;;
7683;SDS011;3884;48.616;12.872;2023-05-18T04:55:13;10.43;;;9.33;;
7683;SDS011;3884;48.616;12.872;2023-05-18T04:57:44;11.40;;;9.00;;
7683;SDS011;3884;48.616;12.872;2023-05-18T05:00:14;11.77;;;9.50;;
7683;SDS011;3884;48.616;12.872;2023-05-18T05:02:41;10.03;;;9.03;;
7683;SDS011;3884;48.616;12.872;2023-05-18T05:05:08;11.07;;;9.57;;
7683;SDS011;3884;48.616;12.872;2023-05-18T05:07:35;12.80;;;9.70;;
7683;SDS011;3884;48.616;12.872;2023-05-18T05:10:02;14.07;;;10.23;;
7683;SDS011;3884;48.616;12.872;2023-05-18T05:12:29;11.87;;;10.63;;
7683;SDS011;3884;48.616;12.872;2023-05-18T05:14:56;11.90;;;9.67;;
7683;SDS011;3884;48.616;12.872;2023-05-18T05:17:24;9.90;;;8.90;;
7683;SDS011;3884;48.616;12.872;2023-05-18T05:19:51;10.47;;;9.37;;
7683;SDS011;3884;48.616;12.872;2023-05-18T05:22:18;13.57;;;10.13;;
7683;SDS011;3884;48.616;12.872;2023-05-18T05:24:45;11.13;;;9.57;;
7683;SDS011;3884;48.616;12.872;2023-05-18T05:27:12;11.07;;;9.97;;
7683;SDS011;3884;48.616;12.872;2023-05-18T05:29:40;11.27;;;8.83;;
7683;SDS011;3884;48.616;12.872;2023-05-18T05:32:08;10.73;;;9.17;;
7683;SDS011;3884;48.616;12.872;2023-05-18T05:34:38;11.57;;;9.03;;
7683;SDS011;3884;48.616;12.872;2023-05-18T05:37:08;10.77;;;8.83;;
7683;SDS011;3884;48.616;12.872;2023-05-18T05:39:35;9.53;;;8.63;;
7683;SDS011;3884;48.616;12.872;2023-05-18T05:42:03;11.87;;;9.07;;
7683;SDS011;3884;48.616;12.872;2023-05-18T05:44:31;11.53;;;9.83;;
7683;SDS011;3884;48.616;12.872;2023-05-18T05:47:06;11.70;;;9.47;;
7683;SDS011;3884;48.616;12.872;2023-05-18T05:49:33;9.73;;;8.70;;
7683;SDS011;3884;48.616;12.872;2023-05-18T05:52:02;10.30;;;9.20;;
7683;SDS011;3884;48.616;12.872;2023-05-18T05:54:29;12.13;;;9.80;;
7683;SDS011;3884;48.616;12.872;2023-05-18T05:56:56;11.63;;;9.77;;
7683;SDS011;3884;48.616;12.872;2023-05-18T05:59:23;14.70;;;10.33;;
7683;SDS011;3884;48.616;12.872;2023-05-18T06:01:50;12.17;;;10.80;;
7683;SDS011;3884;48.616;12.872;2023-05-18T06:04:17;16.03;;;12.60;;
7683;SDS011;3884;48.616;12.872;2023-05-18T06:06:45;10.40;;;8.70;;
7683;SDS011;3884;48.616;12.872;2023-05-18T06:09:14;9.37;;;8.40;;
7683;SDS011;3884;48.616;12.872;2023-05-18T06:11:41;9.80;;;7.90;;
7683;SDS011;3884;48.616;12.872;2023-05-18T06:14:08;12.33;;;7.30;;
7683;SDS011;3884;48.616;12.872;2023-05-18T06:16:35;9.83;;;6.73;;
7683;SDS011;3884;48.616;12.872;2023-05-18T06:19:02;11.10;;;7.30;;
7683;SDS011;3884;48.616;12.872;2023-05-18T06:21:29;8.53;;;6.70;;
7683;SDS011;3884;48.616;12.872;2023-05-18T06:23:58;11.40;;;6.53;;
7683;SDS011;3884;48.616;12.872;2023-05-18T06:26:40;10.43;;;6.20;;
7683;SDS011;3884;48.616;12.872;2023-05-18T06:29:15;13.93;;;7.27;;
7683;SDS011;3884;48.616;12.872;2023-05-18T06:32:03;11.17;;;6.43;;
7683;SDS011;3884;48.616;12.872;2023-05-18T06:34:36;11.77;;;5.93;;
7683;SDS011;3884;48.616;12.872;2023-05-18T06:37:04;10.83;;;6.50;;
7683;SDS011;3884;48.616;12.872;2023-05-18T06:39:31;10.53;;;6.50;;
7683;SDS011;3884;48.616;12.872;2023-05-18T06:41:59;11.10;;;6.90;;
7683;SDS011;3884;48.616;12.872;2023-05-18T06:44:31;9.00;;;6.30;;
7683;SDS011;3884;48.616;12.872;2023-05-18T06:47:13;8.37;;;6.10;;
7683;SDS011;3884;48.616;12.872;2023-05-18T06:49:40;10.50;;;6.37;;
7683;SDS011;3884;48.616;12.872;2023-05-18T06:52:07;7.70;;;5.70;;
7683;SDS011;3884;48.616;12.872;2023-05-18T06:54:35;10.10;;;5.97;;
7683;SDS011;3884;48.616;12.872;2023-05-18T06:57:05;7.37;;;5.27;;
7683;SDS011;3884;48.616;12.872;2023-05-18T06:59:32;8.97;;;5.40;;
7683;SDS011;3884;48.616;12.872;2023-05-18T07:02:00;10.17;;;5.83;;
7683;SDS011;3884;48.616;12.872;2023-05-18T07:04:28;7.80;;;5.90;;
7683;SDS011;3884;48.616;12.872;2023-05-18T07:06:55;10.53;;;5.30;;
7683;SDS011;3884;48.616;12.872;2023-05-18T07:09:22;6.27;;;5.10;;
7683;SDS011;3884;48.616;12.872;2023-05-18T07:11:50;10.23;;;5.30;;
7683;SDS011;3884;48.616;12.872;2023-05-18T07:14:18;10.27;;;5.10;;
7683;SDS011;3884;48.616;12.872;2023-05-18T07:16:45;11.20;;;5.43;;
7683;SDS011;3884;48.616;12.872;2023-05-18T07:19:12;8.13;;;5.37;;
7683;SDS011;3884;48.616;12.872;2023-05-18T07:21:39;7.47;;;4.70;;
7683;SDS011;3884;48.616;12.872;2023-05-18T07:24:06;9.03;;;4.87;;
7683;SDS011;3884;48.616;12.872;2023-05-18T07:26:33;9.30;;;4.70;;
7683;SDS011;3884;48.616;12.872;2023-05-18T07:29:00;10.63;;;4.77;;
7683;SDS011;3884;48.616;12.872;2023-05-18T07:31:28;10.27;;;4.57;;
7683;SDS011;3884;48.616;12.872;2023-05-18T07:33:57;6.60;;;4.37;;
7683;SDS011;3884;48.616;12.872;2023-05-18T07:36:24;8.07;;;4.60;;
7683;SDS011;3884;48.616;12.872;2023-05-18T07:38:52;7.97;;;4.20;;
7683;SDS011;3884;48.616;12.872;2023-05-18T07:41:19;7.87;;;4.20;;
7683;SDS011;3884;48.616;12.872;2023-05-18T07:43:47;9.57;;;4.00;;
7683;SDS011;3884;48.616;12.872;2023-05-18T07:46:14;11.57;;;4.20;;
7683;SDS011;3884;48.616;12.872;2023-05-18T07:48:43;7.67;;;3.47;;
7683;SDS011;3884;48.616;12.872;2023-05-18T07:51:10;8.37;;;4.50;;
7683;SDS011;3884;48.616;12.872;2023-05-18T07:53:37;9.07;;;3.97;;
7683;SDS011;3884;48.616;12.872;2023-05-18T07:56:05;8.77;;;3.60;;
7683;SDS011;3884;48.616;12.872;2023-05-18T07:58:32;7.43;;;3.60;;
7683;SDS011;3884;48.616;12.872;2023-05-18T08:00:59;10.37;;;3.80;;
7683;SDS011;3884;48.616;12.872;2023-05-18T08:03:26;9.73;;;4.07;;
7683;SDS011;3884;48.616;12.872;2023-05-18T08:05:55;6.60;;;3.70;;
7683;SDS011;3884;48.616;12.872;2023-05-18T08:08:21;5.83;;;3.73;;
7683;SDS011;3884;48.616;12.872;2023-05-18T08:10:49;7.40;;;3.40;;
7683;SDS011;3884;48.616;12.872;2023-05-18T08:13:17;11.43;;;3.73;;
7683;SDS011;3884;48.616;12.872;2023-05-18T08:15:44;8.93;;;3.40;;
7683;SDS011;3884;48.616;12.872;2023-05-18T08:18:11;8.67;;;4.20;;
7683;SDS011;3884;48.616;12.872;2023-05-18T08:20:38;8.87;;;3.80;;
7683;SDS011;3884;48.616;12.872;2023-05-18T08:23:06;8.27;;;3.50;;
7683;SDS011;3884;48.616;12.872;2023-05-18T08:25:33;7.83;;;3.20;;
7683;SDS011;3884;48.616;12.872;2023-05-18T08:28:00;6.43;;;3.40;;
7683;SDS011;3884;48.616;12.872;2023-05-18T08:30:27;7.87;;;3.27;;
7683;SDS011;3884;48.616;12.872;2023-05-18T08:32:54;10.33;;;3.40;;
7683;SDS011;3884;48.616;12.872;2023-05-18T08:35:21;10.30;;;3.60;;
7683;SDS011;3884;48.616;12.872;2023-05-18T08:37:48;7.13;;;3.37;;
7683;SDS011;3884;48.616;12.872;2023-05-18T08:40:16;9.40;;;3.97;;
7683;SDS011;3884;48.616;12.872;2023-05-18T08:42:45;9.00;;;4.00;;
7683;SDS011;3884;48.616;12.872;2023-05-18T08:45:19;6.63;;;3.50;;
7683;SDS011;3884;48.616;12.872;2023-05-18T08:47:49;9.17;;;3.80;;
7683;SDS011;3884;48.616;12.872;2023-05-18T08:50:17;7.30;;;3.40;;
7683;SDS011;3884;48.616;12.872;2023-05-18T08:52:46;7.17;;;3.37;;
7683;SDS011;3884;48.616;12.872;2023-05-18T08:55:18;9.40;;;3.50;;
7683;SDS011;3884;48.616;12.872;2023-05-18T08:57:45;6.00;;;3.67;;
7683;SDS011;3884;48.616;12.872;2023-05-18T09:00:19;7.47;;;3.83;;
7683;SDS011;3884;48.616;12.872;2023-05-18T09:02:47;6.70;;;3.23;;
7683;SDS011;3884;48.616;12.872;2023-05-18T09:05:15;10.83;;;3.90;;
7683;SDS011;3884;48.616;12.872;2023-05-18T09:07:44;8.77;;;3.60;;
7683;SDS011;3884;48.616;12.872;2023-05-18T09:10:12;9.83;;;3.63;;
7683;SDS011;3884;48.616;12.872;2023-05-18T09:12:42;7.80;;;3.10;;
7683;SDS011;3884;48.616;12.872;2023-05-18T09:15:11;8.80;;;3.20;;
7683;SDS011;3884;48.616;12.872;2023-05-18T09:17:39;6.93;;;3.73;;
7683;SDS011;3884;48.616;12.872;2023-05-18T09:20:06;7.43;;;3.30;;
7683;SDS011;3884;48.616;12.872;2023-05-18T09:22:34;7.73;;;3.47;;
7683;SDS011;3884;48.616;12.872;2023-05-18T09:25:04;8.87;;;3.53;;
7683;SDS011;3884;48.616;12.872;2023-05-18T09:27:34;7.67;;;3.40;;
7683;SDS011;3884;48.616;12.872;2023-05-18T09:30:02;11.30;;;3.93;;
7683;SDS011;3884;48.616;12.872;2023-05-18T09:32:33;9.07;;;3.57;;
7683;SDS011;3884;48.616;12.872;2023-05-18T09:35:04;10.50;;;3.53;;
7683;SDS011;3884;48.616;12.872;2023-05-18T09:37:32;7.23;;;3.60;;
7683;SDS011;3884;48.616;12.872;2023-05-18T09:40:00;9.77;;;4.17;;
7683;SDS011;3884;48.616;12.872;2023-05-18T09:42:39;6.53;;;3.53;;
7683;SDS011;3884;48.616;12.872;2023-05-18T09:45:15;5.80;;;3.40;;
7683;SDS011;3884;48.616;12.872;2023-05-18T09:47:43;11.83;;;3.80;;
7683;SDS011;3884;48.616;12.872;2023-05-18T09:50:10;7.03;;;3.37;;
7683;SDS011;3884;48.616;12.872;2023-05-18T09:52:41;8.37;;;3.30;;
7683;SDS011;3884;48.616;12.872;2023-05-18T09:55:10;9.13;;;3.30;;
7683;SDS011;3884;48.616;12.872;2023-05-18T09:57:38;8.23;;;4.10;;
7683;SDS011;3884;48.616;12.872;2023-05-18T10:00:06;11.40;;;3.97;;
7683;SDS011;3884;48.616;12.872;2023-05-18T10:02:38;6.83;;;3.00;;
7683;SDS011;3884;48.616;12.872;2023-05-18T10:05:06;9.07;;;3.43;;
7683;SDS011;3884;48.616;12.872;2023-05-18T10:07:44;5.27;;;2.83;;
7683;SDS011;3884;48.616;12.872;2023-05-18T10:10:11;7.47;;;3.57;;
7683;SDS011;3884;48.616;12.872;2023-05-18T10:12:38;8.23;;;3.27;;
7683;SDS011;3884;48.616;12.872;2023-05-18T10:15:07;10.23;;;3.70;;
7683;SDS011;3884;48.616;12.872;2023-05-18T10:17:35;12.00;;;3.50;;
7683;SDS011;3884;48.616;12.872;2023-05-18T10:20:06;8.83;;;3.67;;
7683;SDS011;3884;48.616;12.872;2023-05-18T10:22:35;7.07;;;3.33;;
7683;SDS011;3884;48.616;12.872;2023-05-18T10:25:03;7.70;;;3.30;;
7683;SDS011;3884;48.616;12.872;2023-05-18T10:27:33;6.93;;;3.40;;
7683;SDS011;3884;48.616;12.872;2023-05-18T10:30:01;9.47;;;3.60;;
7683;SDS011;3884;48.616;12.872;2023-05-18T10:32:32;7.37;;;3.80;;
7683;SDS011;3884;48.616;12.872;2023-05-18T10:35:02;4.60;;;3.30;;
7683;SDS011;3884;48.616;12.872;2023-05-18T10:37:32;7.63;;;3.07;;
7683;SDS011;3884;48.616;12.872;2023-05-18T10:40:01;9.03;;;3.30;;
7683;SDS011;3884;48.616;12.872;2023-05-18T10:42:31;5.93;;;3.00;;
7683;SDS011;3884;48.616;12.872;2023-05-18T10:44:58;9.63;;;3.73;;
7683;SDS011;3884;48.616;12.872;2023-05-18T10:47:26;10.00;;;3.37;;
7683;SDS011;3884;48.616;12.872;2023-05-18T10:49:54;6.87;;;2.90;;
7683;SDS011;3884;48.616;12.872;2023-05-18T10:52:25;8.67;;;3.53;;
7683;SDS011;3884;48.616;12.872;2023-05-18T10:54:56;7.83;;;3.40;;
7683;SDS011;3884;48.616;12.872;2023-05-18T10:57:24;9.27;;;2.97;;
7683;SDS011;3884;48.616;12.872;2023-05-18T10:59:56;6.33;;;3.43;;
7683;SDS011;3884;48.616;12.872;2023-05-18T11:02:23;6.80;;;2.90;;
7683;SDS011;3884;48.616;12.872;2023-05-18T11:04:52;9.53;;;3.63;;
7683;SDS011;3884;48.616;12.872;2023-05-18T11:07:21;10.17;;;3.47;;
7683;SDS011;3884;48.616;12.872;2023-05-18T11:09:50;9.73;;;3.40;;
7683;SDS011;3884;48.616;12.872;2023-05-18T11:12:17;10.57;;;4.03;;
7683;SDS011;3884;48.616;12.872;2023-05-18T11:14:48;6.60;;;3.10;;
7683;SDS011;3884;48.616;12.872;2023-05-18T11:17:17;9.13;;;3.23;;
7683;SDS011;3884;48.616;12.872;2023-05-18T11:22:43;7.03;;;3.63;;
7683;SDS011;3884;48.616;12.872;2023-05-18T11:28:08;5.63;;;2.80;;
7683;SDS011;3884;48.616;12.872;2023-05-18T11:30:44;7.17;;;3.20;;
7683;SDS011;3884;48.616;12.872;2023-05-18T11:33:12;7.73;;;3.10;;
7683;SDS011;3884;48.616;12.872;2023-05-18T11:35:58;9.27;;;3.13;;
7683;SDS011;3884;48.616;12.872;2023-05-18T11:41:27;6.07;;;2.93;;
7683;SDS011;3884;48.616;12.872;2023-05-18T11:44:13;7.63;;;2.87;;
7683;SDS011;3884;48.616;12.872;2023-05-18T11:49:35;6.97;;;3.17;;
7683;SDS011;3884;48.616;12.872;2023-05-18T11:52:09;8.40;;;3.20;;
7683;SDS011;3884;48.616;12.872;2023-05-18T11:54:41;8.70;;;3.07;;
7683;SDS011;3884;48.616;12.872;2023-05-18T11:57:12;7.17;;;3.07;;
7683;SDS011;3884;48.616;12.872;2023-05-18T11:59:42;6.03;;;3.43;;
7683;SDS011;3884;48.616;12.872;2023-05-18T12:02:11;7.57;;;2.97;;
7683;SDS011;3884;48.616;12.872;2023-05-18T12:04:44;4.50;;;3.23;;
7683;SDS011;3884;48.616;12.872;2023-05-18T12:07:14;10.07;;;3.30;;
7683;SDS011;3884;48.616;12.872;2023-05-18T12:09:42;6.73;;;3.03;;
7683;SDS011;3884;48.616;12.872;2023-05-18T12:12:12;8.97;;;3.47;;
7683;SDS011;3884;48.616;12.872;2023-05-18T12:14:41;6.47;;;3.50;;
7683;SDS011;3884;48.616;12.872;2023-05-18T12:17:09;10.27;;;3.60;;
7683;SDS011;3884;48.616;12.872;2023-05-18T12:19:37;8.90;;;3.73;;
7683;SDS011;3884;48.616;12.872;2023-05-18T12:22:07;6.30;;;3.23;;
7683;SDS011;3884;48.616;12.872;2023-05-18T12:24:35;7.37;;;3.10;;
7683;SDS011;3884;48.616;12.872;2023-05-18T12:27:02;6.10;;;3.40;;
7683;SDS011;3884;48.616;12.872;2023-05-18T12:29:33;6.60;;;3.20;;
7683;SDS011;3884;48.616;12.872;2023-05-18T12:32:06;7.60;;;3.43;;
7683;SDS011;3884;48.616;12.872;2023-05-18T12:34:34;5.87;;;3.63;;
7683;SDS011;3884;48.616;12.872;2023-05-18T12:37:01;7.90;;;3.10;;
7683;SDS011;3884;48.616;12.872;2023-05-18T12:39:28;5.97;;;3.20;;
7683;SDS011;3884;48.616;12.872;2023-05-18T12:42:07;8.70;;;3.20;;
7683;SDS011;3884;48.616;12.872;2023-05-18T12:44:36;6.97;;;3.20;;
7683;SDS011;3884;48.616;12.872;2023-05-18T12:47:03;5.60;;;3.63;;
7683;SDS011;3884;48.616;12.872;2023-05-18T12:49:34;9.77;;;3.50;;
7683;SDS011;3884;48.616;12.872;2023-05-18T12:52:06;9.83;;;3.40;;
7683;SDS011;3884;48.616;12.872;2023-05-18T12:54:34;6.67;;;3.57;;
7683;SDS011;3884;48.616;12.872;2023-05-18T12:57:04;6.53;;;3.47;;
7683;SDS011;3884;48.616;12.872;2023-05-18T12:59:34;6.33;;;3.30;;
7683;SDS011;3884;48.616;12.872;2023-05-18T13:02:23;7.90;;;3.40;;
7683;SDS011;3884;48.616;12.872;2023-05-18T13:04:59;9.57;;;3.77;;
7683;SDS011;3884;48.616;12.872;2023-05-18T13:07:27;5.73;;;3.23;;
7683;SDS011;3884;48.616;12.872;2023-05-18T13:09:58;7.60;;;3.50;;
7683;SDS011;3884;48.616;12.872;2023-05-18T13:12:37;10.43;;;3.47;;
7683;SDS011;3884;48.616;12.872;2023-05-18T13:15:11;8.90;;;3.17;;
7683;SDS011;3884;48.616;12.872;2023-05-18T13:17:46;9.93;;;3.23;;
7683;SDS011;3884;48.616;12.872;2023-05-18T13:20:19;8.80;;;3.47;;
7683;SDS011;3884;48.616;12.872;2023-05-18T13:22:47;10.47;;;3.47;;
7683;SDS011;3884;48.616;12.872;2023-05-18T13:25:15;8.13;;;3.20;;
7683;SDS011;3884;48.616;12.872;2023-05-18T13:27:42;9.27;;;3.87;;
7683;SDS011;3884;48.616;12.872;2023-05-18T13:30:14;7.00;;;3.33;;
7683;SDS011;3884;48.616;12.872;2023-05-18T13:32:41;5.47;;;2.90;;
7683;SDS011;3884;48.616;12.872;2023-05-18T13:35:08;9.53;;;3.70;;
7683;SDS011;3884;48.616;12.872;2023-05-18T13:37:36;9.10;;;3.63;;
7683;SDS011;3884;48.616;12.872;2023-05-18T13:40:21;8.03;;;3.73;;
7683;SDS011;3884;48.616;12.872;2023-05-18T13:42:49;7.37;;;3.53;;
7683;SDS011;3884;48.616;12.872;2023-05-18T13:45:16;8.03;;;3.40;;
7683;SDS011;3884;48.616;12.872;2023-05-18T13:47:45;9.93;;;4.23;;
7683;SDS011;3884;48.616;12.872;2023-05-18T13:50:14;6.63;;;3.43;;
7683;SDS011;3884;48.616;12.872;2023-05-18T13:52:42;7.63;;;3.70;;
7683;SDS011;3884;48.616;12.872;2023-05-18T13:55:10;5.47;;;3.10;;
7683;SDS011;3884;48.616;12.872;2023-05-18T13:57:39;6.67;;;3.20;;
7683;SDS011;3884;48.616;12.872;2023-05-18T14:00:06;6.93;;;3.50;;
7683;SDS011;3884;48.616;12.872;2023-05-18T14:02:38;7.40;;;3.33;;
7683;SDS011;3884;48.616;12.872;2023-05-18T14:05:05;5.90;;;3.10;;
7683;SDS011;3884;48.616;12.872;2023-05-18T14:07:33;4.70;;;3.17;;
7683;SDS011;3884;48.616;12.872;2023-05-18T14:10:00;6.63;;;3.43;;
7683;SDS011;3884;48.616;12.872;2023-05-18T14:12:27;9.47;;;3.57;;
7683;SDS011;3884;48.616;12.872;2023-05-18T14:14:56;7.23;;;3.37;;
7683;SDS011;3884;48.616;12.872;2023-05-18T14:17:23;7.33;;;3.30;;
7683;SDS011;3884;48.616;12.872;2023-05-18T14:19:51;7.87;;;3.57;;
7683;SDS011;3884;48.616;12.872;2023-05-18T14:22:18;6.27;;;3.73;;
7683;SDS011;3884;48.616;12.872;2023-05-18T14:24:46;8.77;;;3.37;;
7683;SDS011;3884;48.616;12.872;2023-05-18T14:27:12;7.43;;;3.43;;
7683;SDS011;3884;48.616;12.872;2023-05-18T14:29:39;9.30;;;3.97;;
7683;SDS011;3884;48.616;12.872;2023-05-18T14:32:08;8.33;;;3.57;;
7683;SDS011;3884;48.616;12.872;2023-05-18T14:34:34;6.67;;;3.30;;
7683;SDS011;3884;48.616;12.872;2023-05-18T14:37:01;7.30;;;3.87;;
7683;SDS011;3884;48.616;12.872;2023-05-18T14:39:28;9.37;;;3.90;;
7683;SDS011;3884;48.616;12.872;2023-05-18T14:41:55;7.50;;;3.57;;
7683;SDS011;3884;48.616;12.872;2023-05-18T14:44:22;6.10;;;3.67;;
7683;SDS011;3884;48.616;12.872;2023-05-18T14:46:48;8.27;;;3.90;;
7683;SDS011;3884;48.616;12.872;2023-05-18T14:49:17;7.63;;;4.07;;
7683;SDS011;3884;48.616;12.872;2023-05-18T14:51:44;8.63;;;4.10;;
7683;SDS011;3884;48.616;12.872;2023-05-18T14:54:10;9.73;;;3.87;;
7683;SDS011;3884;48.616;12.872;2023-05-18T14:56:38;9.30;;;4.27;;
7683;SDS011;3884;48.616;12.872;2023-05-18T14:59:05;9.10;;;4.03;;
7683;SDS011;3884;48.616;12.872;2023-05-18T15:01:32;6.83;;;3.80;;
7683;SDS011;3884;48.616;12.872;2023-05-18T15:03:59;6.93;;;3.50;;
7683;SDS011;3884;48.616;12.872;2023-05-18T15:06:27;6.27;;;3.60;;
7683;SDS011;3884;48.616;12.872;2023-05-18T15:08:55;6.57;;;4.27;;
7683;SDS011;3884;48.616;12.872;2023-05-18T15:11:22;9.07;;;5.07;;
7683;SDS011;3884;48.616;12.872;2023-05-18T15:13:49;10.83;;;4.23;;
7683;SDS011;3884;48.616;12.872;2023-05-18T15:16:15;10.17;;;6.43;;
7683;SDS011;3884;48.616;12.872;2023-05-18T15:18:43;7.60;;;5.23;;
7683;SDS011;3884;48.616;12.872;2023-05-18T15:21:10;10.63;;;6.10;;